createdAt,value
2017-08-26T00:00:44.165Z,33.8
2017-08-26T00:01:44.196Z,33.8
2017-08-26T00:02:44.222Z,33.8
2017-08-26T00:03:47.813Z,33.8
2017-08-26T00:04:44.503Z,33.7
2017-08-26T00:05:46.249Z,33.7
2017-08-26T00:06:44.370Z,33.7
2017-08-26T00:07:47.800Z,33.7
2017-08-26T00:08:47.870Z,33.7
2017-08-26T00:09:46.730Z,33.7
2017-08-26T00:10:46.617Z,33.7
2017-08-26T00:11:44.961Z,33.7
2017-08-26T00:12:44.996Z,33.7
2017-08-26T00:13:46.834Z,33.7
2017-08-26T00:14:44.965Z,33.7
2017-08-26T00:15:45.244Z,33.7
2017-08-26T00:16:48.667Z,33.7
2017-08-26T00:17:48.517Z,33.7
2017-08-26T00:18:45.188Z,33.7
2017-08-26T00:19:45.430Z,33.7
2017-08-26T00:20:45.324Z,33.7
2017-08-26T00:21:45.770Z,33.7
2017-08-26T00:22:48.925Z,33.7
2017-08-26T00:23:45.477Z,33.7
2017-08-26T00:24:45.445Z,33.7
2017-08-26T00:25:45.761Z,33.7
2017-08-26T00:26:45.569Z,33.7
2017-08-26T00:27:49.125Z,33.7
2017-08-26T00:28:49.203Z,33.7
2017-08-26T00:29:47.659Z,33.7
2017-08-26T00:30:45.743Z,33.7
2017-08-26T00:31:49.123Z,33.7
2017-08-26T00:32:47.793Z,33.7
2017-08-26T00:33:46.329Z,33.7
2017-08-26T00:34:46.202Z,33.7
2017-08-26T00:35:46.019Z,33.7
2017-08-26T00:36:46.348Z,33.7
2017-08-26T00:37:46.181Z,33.7
2017-08-26T00:38:48.137Z,33.7
2017-08-26T00:39:46.442Z,33.7
2017-08-26T00:40:49.893Z,33.7
2017-08-26T00:41:46.367Z,33.7
2017-08-26T00:42:46.362Z,33.7
2017-08-26T00:43:48.346Z,33.7
2017-08-26T00:44:46.495Z,33.7
2017-08-26T00:45:46.628Z,33.7
2017-08-26T00:46:46.733Z,33.7
2017-08-26T00:47:48.675Z,33.7
2017-08-26T00:48:48.687Z,33.7
2017-08-26T00:49:46.598Z,33.7
2017-08-26T00:50:48.892Z,33.7
2017-08-26T00:51:49.064Z,33.7
2017-08-26T00:52:47.106Z,33.7
2017-08-26T00:53:47.100Z,33.7
2017-08-26T00:54:47.136Z,33.7
2017-08-26T00:55:47.039Z,33.7
2017-08-26T00:56:48.946Z,33.7
2017-08-26T00:57:49.242Z,33.7
2017-08-26T00:58:47.098Z,33.7
2017-08-26T00:59:47.188Z,33.7
2017-08-26T01:00:49.347Z,33.7
2017-08-26T01:01:49.126Z,33.7
2017-08-26T01:02:50.821Z,33.7
2017-08-26T01:03:47.461Z,33.7
2017-08-26T01:04:47.537Z,33.7
2017-08-26T01:05:49.292Z,33.7
2017-08-26T01:06:47.468Z,33.7
2017-08-26T01:07:51.024Z,33.7
2017-08-26T01:08:47.564Z,33.7
2017-08-26T01:09:49.909Z,33.7
2017-08-26T01:10:47.859Z,33.7
2017-08-26T01:11:49.616Z,33.7
2017-08-26T01:12:48.025Z,33.7
2017-08-26T01:13:47.872Z,33.7
2017-08-26T01:14:47.931Z,33.7
2017-08-26T01:15:51.757Z,33.7
2017-08-26T01:16:49.893Z,33.7
2017-08-26T01:17:48.262Z,33.7
2017-08-26T01:18:51.680Z,33.7
2017-08-26T01:19:50.850Z,33.7
2017-08-26T01:20:50.144Z,33.7
2017-08-26T01:21:48.416Z,33.7
2017-08-26T01:22:48.314Z,33.7
2017-08-26T01:23:48.541Z,33.7
2017-08-26T01:24:48.573Z,33.7
2017-08-26T01:25:48.615Z,33.7
2017-08-26T01:26:48.414Z,33.7
2017-08-26T01:27:52.043Z,33.7
2017-08-26T01:28:52.158Z,33.7
2017-08-26T01:29:48.607Z,33.7
2017-08-26T01:30:52.289Z,33.7
2017-08-26T01:31:50.838Z,33.7
2017-08-26T01:32:50.990Z,33.7
2017-08-26T01:33:52.684Z,33.7
2017-08-26T01:34:51.133Z,33.7
2017-08-26T01:35:48.976Z,33.7
2017-08-26T01:36:49.175Z,33.7
2017-08-26T01:37:49.426Z,33.7
2017-08-26T01:38:49.305Z,33.7
2017-08-26T01:39:49.698Z,33.7
2017-08-26T01:40:49.532Z,33.7
2017-08-26T01:41:49.409Z,33.7
2017-08-26T01:42:51.340Z,33.7
2017-08-26T01:43:53.099Z,33.7
2017-08-26T01:44:52.892Z,33.7
2017-08-26T01:45:49.595Z,33.7
2017-08-26T01:46:52.914Z,33.7
2017-08-26T01:47:53.349Z,33.7
2017-08-26T01:48:53.013Z,33.7
2017-08-26T01:49:53.244Z,33.7
2017-08-26T01:50:49.993Z,33.8
2017-08-26T01:51:49.944Z,33.8
2017-08-26T01:52:49.872Z,33.8
2017-08-26T01:53:53.483Z,33.8
2017-08-26T01:54:50.021Z,33.8
2017-08-26T01:55:53.591Z,33.8
2017-08-26T01:56:53.542Z,33.8
2017-08-26T01:57:50.353Z,33.8
2017-08-26T01:58:52.257Z,33.8
2017-08-26T01:59:52.071Z,33.8
2017-08-26T02:00:53.711Z,33.8
2017-08-26T02:01:52.090Z,33.8
2017-08-26T02:02:53.509Z,33.8
2017-08-26T02:03:52.165Z,33.8
2017-08-26T02:04:52.242Z,33.8
2017-08-26T02:05:53.917Z,33.8
2017-08-26T02:06:50.641Z,33.8
2017-08-26T02:07:50.505Z,33.8
2017-08-26T02:08:50.760Z,33.8
2017-08-26T02:09:50.674Z,33.8
2017-08-26T02:10:50.937Z,33.8
2017-08-26T02:11:54.119Z,33.8
2017-08-26T02:12:51.230Z,33.8
2017-08-26T02:13:54.648Z,33.8
2017-08-26T02:14:54.655Z,33.8
2017-08-26T02:15:54.330Z,33.8
2017-08-26T02:16:53.118Z,33.8
2017-08-26T02:17:52.981Z,33.8
2017-08-26T02:18:51.507Z,33.8
2017-08-26T02:19:51.583Z,33.8
2017-08-26T02:20:51.682Z,33.8
2017-08-26T02:21:53.450Z,33.8
2017-08-26T02:22:53.532Z,33.8
2017-08-26T02:23:51.607Z,33.8
2017-08-26T02:24:55.174Z,33.8
2017-08-26T02:25:55.206Z,33.8
2017-08-26T02:26:51.722Z,33.8
2017-08-26T02:27:55.161Z,33.8
2017-08-26T02:28:55.151Z,33.8
2017-08-26T02:29:55.026Z,33.8
2017-08-26T02:30:51.816Z,33.8
2017-08-26T02:31:53.845Z,33.8
2017-08-26T02:32:53.949Z,33.8
2017-08-26T02:33:54.321Z,33.8
2017-08-26T02:34:55.676Z,33.8
2017-08-26T02:35:55.490Z,33.8
2017-08-26T02:36:55.589Z,33.8
2017-08-26T02:37:52.213Z,33.8
2017-08-26T02:38:54.474Z,33.8
2017-08-26T02:39:55.633Z,33.8
2017-08-26T02:40:52.389Z,33.8
2017-08-26T02:41:52.245Z,33.8
2017-08-26T02:42:52.301Z,33.8
2017-08-26T02:43:55.731Z,33.8
2017-08-26T02:44:52.591Z,33.8
2017-08-26T02:45:52.487Z,33.8
2017-08-26T02:46:52.857Z,33.8
2017-08-26T02:47:56.269Z,33.8
2017-08-26T02:48:52.777Z,33.8
2017-08-26T02:49:52.877Z,33.8
2017-08-26T02:50:53.126Z,33.8
2017-08-26T02:51:53.171Z,33.8
2017-08-26T02:52:52.996Z,33.8
2017-08-26T02:53:53.224Z,33.8
2017-08-26T02:54:55.145Z,33.8
2017-08-26T02:55:53.067Z,33.8
2017-08-26T02:56:53.403Z,33.8
2017-08-26T02:57:53.528Z,33.8
2017-08-26T02:58:55.119Z,33.8
2017-08-26T02:59:53.479Z,33.8
2017-08-26T03:00:53.284Z,33.8
2017-08-26T03:01:53.629Z,33.8
2017-08-26T03:02:56.850Z,33.8
2017-08-26T03:03:57.159Z,33.8
2017-08-26T03:04:53.563Z,33.8
2017-08-26T03:05:57.024Z,33.8
2017-08-26T03:06:55.575Z,33.8
2017-08-26T03:07:53.573Z,33.8
2017-08-26T03:08:56.922Z,33.8
2017-08-26T03:09:53.921Z,33.8
2017-08-26T03:10:53.717Z,33.8
2017-08-26T03:11:55.628Z,33.8
2017-08-26T03:12:55.921Z,33.8
2017-08-26T03:13:53.865Z,33.8
2017-08-26T03:14:54.153Z,33.8
2017-08-26T03:15:54.236Z,33.8
2017-08-26T03:16:54.093Z,33.8
2017-08-26T03:17:54.151Z,33.8
2017-08-26T03:18:57.575Z,33.8
2017-08-26T03:19:54.301Z,33.8
2017-08-26T03:20:54.367Z,33.8
2017-08-26T03:21:57.902Z,33.8
2017-08-26T03:22:56.347Z,33.8
2017-08-26T03:23:57.810Z,33.8
2017-08-26T03:24:54.533Z,33.8
2017-08-26T03:25:58.140Z,33.8
2017-08-26T03:26:54.913Z,33.8
2017-08-26T03:27:54.683Z,33.8
2017-08-26T03:28:56.670Z,33.8
2017-08-26T03:29:58.370Z,33.8
2017-08-26T03:30:57.017Z,33.8
2017-08-26T03:31:58.509Z,33.8
2017-08-26T03:32:57.161Z,33.8
2017-08-26T03:33:55.121Z,33.8
2017-08-26T03:34:58.732Z,33.8
2017-08-26T03:35:57.160Z,33.8
2017-08-26T03:36:58.826Z,33.8
2017-08-26T03:37:55.582Z,33.8
2017-08-26T03:38:55.639Z,33.9
2017-08-26T03:39:57.580Z,33.9
2017-08-26T03:40:55.438Z,33.8
2017-08-26T03:41:59.060Z,33.9
2017-08-26T03:42:59.137Z,33.9
2017-08-26T03:43:55.847Z,33.9
2017-08-26T03:44:57.827Z,33.8
2017-08-26T03:45:57.833Z,33.9
2017-08-26T03:46:55.735Z,33.9
2017-08-26T03:47:59.075Z,33.8
2017-08-26T03:48:56.014Z,33.9
2017-08-26T03:49:56.102Z,33.8
2017-08-26T03:50:58.014Z,33.8
2017-08-26T03:51:55.967Z,33.9
2017-08-26T03:52:56.036Z,33.9
2017-08-26T03:53:56.244Z,33.9
2017-08-26T03:54:59.425Z,33.9
2017-08-26T03:55:56.410Z,33.9
2017-08-26T03:56:59.778Z,33.8
2017-08-26T03:57:58.152Z,33.9
2017-08-26T03:58:56.282Z,33.9
2017-08-26T03:59:58.207Z,33.9
2017-08-26T04:00:59.642Z,33.9
2017-08-26T04:01:59.657Z,33.9
2017-08-26T04:02:56.443Z,33.8
2017-08-26T04:03:56.560Z,33.9
2017-08-26T04:04:56.768Z,33.9
2017-08-26T04:05:56.560Z,33.9
2017-08-26T04:06:56.630Z,33.9
2017-08-26T04:07:56.591Z,33.9
2017-08-26T04:08:56.658Z,33.9
2017-08-26T04:09:56.939Z,33.9
2017-08-26T04:10:56.830Z,33.9
2017-08-26T04:11:56.843Z,33.9
2017-08-26T04:13:00.178Z,33.9
2017-08-26T04:13:58.836Z,33.9
2017-08-26T04:14:59.090Z,33.8
2017-08-26T04:15:57.210Z,33.8
2017-08-26T04:16:57.098Z,33.9
2017-08-26T04:17:59.311Z,33.9
2017-08-26T04:18:57.211Z,33.9
2017-08-26T04:19:59.398Z,33.9
2017-08-26T04:21:00.666Z,33.9
2017-08-26T04:21:57.377Z,33.9
2017-08-26T04:22:59.590Z,33.9
2017-08-26T04:23:57.501Z,33.9
2017-08-26T04:25:01.100Z,33.9
2017-08-26T04:25:59.553Z,33.8
2017-08-26T04:26:57.727Z,33.8
2017-08-26T04:28:01.308Z,33.9
2017-08-26T04:28:59.994Z,33.9
2017-08-26T04:30:00.017Z,33.9
2017-08-26T04:30:59.879Z,33.9
2017-08-26T04:32:00.138Z,33.9
2017-08-26T04:33:01.412Z,33.9
2017-08-26T04:34:00.043Z,33.9
2017-08-26T04:34:58.415Z,33.9
2017-08-26T04:36:00.403Z,33.9
2017-08-26T04:37:00.404Z,33.9
2017-08-26T04:37:58.360Z,33.9
2017-08-26T04:38:58.450Z,33.9
2017-08-26T04:40:02.000Z,33.9
2017-08-26T04:40:58.737Z,33.9
2017-08-26T04:41:58.805Z,33.9
2017-08-26T04:42:58.854Z,33.9
2017-08-26T04:43:58.898Z,33.9
2017-08-26T04:44:58.805Z,33.9
2017-08-26T04:45:58.902Z,33.9
2017-08-26T04:46:58.975Z,33.9
2017-08-26T04:47:59.066Z,33.9
2017-08-26T04:49:02.480Z,33.9
2017-08-26T04:50:01.365Z,33.9
2017-08-26T04:50:59.290Z,33.9
2017-08-26T04:51:59.311Z,33.9
2017-08-26T04:53:01.480Z,33.9
2017-08-26T04:53:59.616Z,33.9
2017-08-26T04:54:59.484Z,33.9
2017-08-26T04:56:01.671Z,33.9
2017-08-26T04:56:59.813Z,33.9
2017-08-26T04:58:01.772Z,33.9
2017-08-26T04:58:59.892Z,33.9
2017-08-26T05:00:03.237Z,33.9
2017-08-26T05:01:01.697Z,33.9
2017-08-26T05:02:03.384Z,33.9
2017-08-26T05:03:00.073Z,33.9
2017-08-26T05:04:00.037Z,33.9
2017-08-26T05:04:59.915Z,33.9
2017-08-26T05:06:03.328Z,33.9
2017-08-26T05:07:02.226Z,33.9
2017-08-26T05:08:02.250Z,33.9
2017-08-26T05:09:00.157Z,33.9
2017-08-26T05:10:00.394Z,33.9
2017-08-26T05:11:00.285Z,33.9
2017-08-26T05:12:00.343Z,33.9
2017-08-26T05:13:00.617Z,33.9
2017-08-26T05:14:03.968Z,33.9
2017-08-26T05:15:02.416Z,33.9
2017-08-26T05:16:02.527Z,33.9
2017-08-26T05:17:03.294Z,33.9
2017-08-26T05:18:02.792Z,33.9
2017-08-26T05:19:00.692Z,33.9
2017-08-26T05:20:04.095Z,33.9
2017-08-26T05:21:00.794Z,33.9
2017-08-26T05:22:04.445Z,33.9
2017-08-26T05:23:01.176Z,33.9
2017-08-26T05:24:01.263Z,33.9
2017-08-26T05:25:04.430Z,33.9
2017-08-26T05:26:04.478Z,33.9
2017-08-26T05:27:01.233Z,33.9
2017-08-26T05:28:01.459Z,33.9
2017-08-26T05:29:01.335Z,33.9
2017-08-26T05:30:01.412Z,33.9
2017-08-26T05:31:04.746Z,33.9
2017-08-26T05:32:01.509Z,33.9
2017-08-26T05:33:04.892Z,33.9
2017-08-26T05:34:03.501Z,33.9
2017-08-26T05:35:01.841Z,33.9
2017-08-26T05:36:04.983Z,33.9
2017-08-26T05:37:03.659Z,33.9
2017-08-26T05:38:01.804Z,33.9
2017-08-26T05:39:03.795Z,33.9
2017-08-26T05:40:02.110Z,33.9
2017-08-26T05:41:05.353Z,33.9
2017-08-26T05:42:02.075Z,33.9
2017-08-26T05:43:02.303Z,33.9
2017-08-26T05:44:02.093Z,33.9
2017-08-26T05:45:04.224Z,33.9
2017-08-26T05:46:05.508Z,33.9
2017-08-26T05:47:02.441Z,33.9
2017-08-26T05:48:02.536Z,33.9
2017-08-26T05:49:02.538Z,33.9
2017-08-26T05:50:05.876Z,33.9
2017-08-26T05:51:05.664Z,33.9
2017-08-26T05:52:02.350Z,33.9
2017-08-26T05:53:05.778Z,33.9
2017-08-26T05:54:04.635Z,33.9
2017-08-26T05:55:02.634Z,33.9
2017-08-26T05:56:04.740Z,33.9
2017-08-26T05:57:02.716Z,33.9
2017-08-26T05:58:02.994Z,33.9
2017-08-26T05:59:03.110Z,33.9
2017-08-26T06:00:02.965Z,33.9
2017-08-26T06:01:03.052Z,33.9
2017-08-26T06:02:06.564Z,33.9
2017-08-26T06:03:03.379Z,33.9
2017-08-26T06:04:03.141Z,33.9
2017-08-26T06:05:03.410Z,33.9
2017-08-26T06:06:05.436Z,33.9
2017-08-26T06:07:06.719Z,33.9
2017-08-26T06:08:05.604Z,33.8
2017-08-26T06:09:03.712Z,33.8
2017-08-26T06:10:03.769Z,33.9
2017-08-26T06:11:03.877Z,33.9
2017-08-26T06:12:03.966Z,33.9
2017-08-26T06:13:03.859Z,33.8
2017-08-26T06:14:05.862Z,33.8
2017-08-26T06:15:06.131Z,33.8
2017-08-26T06:16:05.972Z,33.8
2017-08-26T06:17:06.034Z,33.8
2017-08-26T06:18:07.717Z,33.8
2017-08-26T06:19:04.464Z,33.8
2017-08-26T06:20:06.489Z,33.8
2017-08-26T06:21:04.590Z,33.8
2017-08-26T06:22:07.799Z,33.8
2017-08-26T06:23:04.747Z,33.8
2017-08-26T06:24:04.566Z,33.8
2017-08-26T06:25:06.831Z,33.8
2017-08-26T06:26:04.870Z,33.8
2017-08-26T06:27:08.181Z,33.8
2017-08-26T06:28:06.852Z,33.8
2017-08-26T06:29:04.920Z,33.8
2017-08-26T06:30:04.797Z,33.8
2017-08-26T06:31:05.102Z,33.7
2017-08-26T06:32:04.953Z,33.8
2017-08-26T06:33:08.379Z,33.7
2017-08-26T06:34:07.271Z,33.7
2017-08-26T06:35:05.445Z,33.7
2017-08-26T06:36:05.458Z,33.7
2017-08-26T06:37:08.692Z,33.7
2017-08-26T06:38:05.640Z,33.7
2017-08-26T06:39:05.523Z,33.7
2017-08-26T06:40:07.497Z,33.7
2017-08-26T06:41:05.672Z,33.7
2017-08-26T06:42:05.900Z,33.7
2017-08-26T06:43:05.672Z,33.7
2017-08-26T06:44:05.754Z,33.7
2017-08-26T06:45:07.753Z,33.6
2017-08-26T06:46:06.101Z,33.6
2017-08-26T06:47:06.127Z,33.6
2017-08-26T06:48:07.896Z,33.6
2017-08-26T06:49:09.592Z,33.6
2017-08-26T06:50:08.028Z,33.6
2017-08-26T06:51:08.042Z,33.6
2017-08-26T06:52:06.285Z,33.6
2017-08-26T06:53:06.382Z,33.6
2017-08-26T06:54:08.677Z,33.6
2017-08-26T06:55:09.784Z,33.6
2017-08-26T06:56:06.520Z,33.5
2017-08-26T06:57:08.548Z,33.5
2017-08-26T06:58:10.164Z,33.5
2017-08-26T06:59:06.724Z,33.5
2017-08-26T07:00:06.978Z,33.5
2017-08-26T07:01:08.768Z,33.5
2017-08-26T07:02:06.898Z,33.5
2017-08-26T07:03:07.117Z,33.5
2017-08-26T07:04:07.004Z,33.5
2017-08-26T07:05:07.273Z,33.5
2017-08-26T07:06:10.660Z,33.5
2017-08-26T07:07:07.176Z,33.5
2017-08-26T07:08:07.406Z,33.5
2017-08-26T07:09:07.263Z,33.4
2017-08-26T07:10:07.562Z,33.4
2017-08-26T07:11:09.585Z,33.4
2017-08-26T07:12:11.036Z,33.4
2017-08-26T07:13:09.715Z,33.4
2017-08-26T07:14:07.569Z,33.4
2017-08-26T07:15:10.977Z,33.4
2017-08-26T07:16:07.902Z,33.4
2017-08-26T07:17:07.718Z,33.4
2017-08-26T07:18:08.006Z,33.4
2017-08-26T07:19:07.953Z,33.4
2017-08-26T07:20:07.802Z,33.4
2017-08-26T07:21:10.008Z,33.4
2017-08-26T07:22:09.881Z,33.3
2017-08-26T07:23:11.563Z,33.3
2017-08-26T07:24:08.303Z,33.3
2017-08-26T07:25:10.250Z,33.3
2017-08-26T07:26:11.750Z,33.3
2017-08-26T07:27:10.331Z,33.3
2017-08-26T07:28:10.432Z,33.3
2017-08-26T07:29:12.559Z,33.2
2017-08-26T07:30:08.542Z,33.2
2017-08-26T07:31:11.761Z,33.2
2017-08-26T07:32:10.409Z,33.2
2017-08-26T07:33:10.701Z,33.2
2017-08-26T07:34:08.594Z,33.2
2017-08-26T07:35:10.521Z,33.2
2017-08-26T07:36:08.695Z,33.2
2017-08-26T07:37:12.221Z,33.1
2017-08-26T07:38:10.589Z,33.1
2017-08-26T07:39:10.676Z,33.1
2017-08-26T07:40:10.989Z,33.1
2017-08-26T07:41:12.384Z,33.1
2017-08-26T07:42:09.153Z,33.1
2017-08-26T07:43:09.014Z,33.1
2017-08-26T07:44:09.229Z,33.1
2017-08-26T07:45:11.261Z,33.1
2017-08-26T07:46:11.277Z,33.1
2017-08-26T07:47:09.249Z,33.1
2017-08-26T07:48:12.787Z,33.1
2017-08-26T07:49:09.558Z,33.1
2017-08-26T07:50:11.568Z,33.1
2017-08-26T07:51:13.067Z,33.1
2017-08-26T07:52:09.561Z,33.1
2017-08-26T07:53:11.518Z,33.1
2017-08-26T07:54:11.584Z,33.1
2017-08-26T07:55:11.643Z,33.1
2017-08-26T07:56:09.848Z,33.1
2017-08-26T07:57:13.154Z,33.1
2017-08-26T07:58:11.781Z,33.1
2017-08-26T07:59:13.241Z,33.1
2017-08-26T08:00:13.299Z,33.1
2017-08-26T08:01:13.358Z,33.1
2017-08-26T08:02:12.051Z,33.1
2017-08-26T08:03:12.069Z,33.1
2017-08-26T08:04:12.196Z,33.1
2017-08-26T08:05:13.847Z,33.1
2017-08-26T08:06:13.851Z,33.1
2017-08-26T08:07:13.936Z,33.1
2017-08-26T08:08:10.411Z,33.1
2017-08-26T08:09:14.042Z,33.1
2017-08-26T08:10:14.097Z,33.1
2017-08-26T08:11:12.740Z,33.1
2017-08-26T08:12:10.899Z,33.1
2017-08-26T08:13:11.010Z,33.1
2017-08-26T08:14:14.383Z,33.1
2017-08-26T08:15:11.126Z,33.1
2017-08-26T08:16:14.308Z,33.1
2017-08-26T08:17:11.242Z,33.1
2017-08-26T08:18:11.361Z,33.1
2017-08-26T08:19:14.727Z,33
2017-08-26T08:20:11.254Z,33
2017-08-26T08:21:11.362Z,33
2017-08-26T08:22:14.896Z,33
2017-08-26T08:23:14.985Z,33
2017-08-26T08:24:11.667Z,32.9
2017-08-26T08:25:15.010Z,32.9
2017-08-26T08:26:11.583Z,32.9
2017-08-26T08:27:11.801Z,32.9
2017-08-26T08:28:15.180Z,32.9
2017-08-26T08:29:11.733Z,32.9
2017-08-26T08:30:11.729Z,32.8
2017-08-26T08:31:11.806Z,32.8
2017-08-26T08:32:13.791Z,32.7
2017-08-26T08:33:11.980Z,32.7
2017-08-26T08:34:12.276Z,32.7
2017-08-26T08:35:12.347Z,32.7
2017-08-26T08:36:14.272Z,32.7
2017-08-26T08:37:15.487Z,32.7
2017-08-26T08:38:15.758Z,32.7
2017-08-26T08:39:12.200Z,32.7
2017-08-26T08:40:12.328Z,32.7
2017-08-26T08:41:12.294Z,32.7
2017-08-26T08:44:48.171Z,32.7
2017-08-26T08:45:48.024Z,32.8
2017-08-26T08:46:44.705Z,32.8
2017-08-26T08:47:48.137Z,32.8
2017-08-26T08:48:46.987Z,32.8
2017-08-26T08:49:47.535Z,32.8
2017-08-26T08:50:48.465Z,32.8
2017-08-26T08:51:48.311Z,32.8
2017-08-26T08:52:45.091Z,32.8
2017-08-26T08:53:45.356Z,32.8
2017-08-26T08:54:45.181Z,32.8
2017-08-26T08:55:47.178Z,32.8
2017-08-26T08:56:45.533Z,32.8
2017-08-26T08:57:48.890Z,32.8
2017-08-26T08:58:45.648Z,32.8
2017-08-26T08:59:45.737Z,32.8
2017-08-26T09:00:45.826Z,32.7
2017-08-26T09:01:45.679Z,32.7
2017-08-26T09:02:47.694Z,32.7
2017-08-26T09:03:45.826Z,32.6
2017-08-26T09:04:47.995Z,32.5
2017-08-26T09:05:48.054Z,32.5
2017-08-26T09:06:48.127Z,32.4
2017-08-26T09:07:46.229Z,32.4
2017-08-26T09:08:49.362Z,32.3
2017-08-26T09:09:46.100Z,32.3
2017-08-26T09:10:46.190Z,32.3
2017-08-26T09:11:46.272Z,32.2
2017-08-26T09:12:46.470Z,32.1
2017-08-26T09:13:49.900Z,32
2017-08-26T09:14:48.571Z,32.1
2017-08-26T09:15:48.555Z,32.1
2017-08-26T09:16:46.599Z,32.2
2017-08-26T09:17:48.594Z,32.2
2017-08-26T09:18:46.767Z,32.3
2017-08-26T09:19:50.141Z,32.3
2017-08-26T09:20:49.078Z,32.4
2017-08-26T09:21:49.040Z,32.4
2017-08-26T09:22:49.109Z,32.5
2017-08-26T09:23:47.070Z,32.5
2017-08-26T09:24:49.269Z,32.5
2017-08-26T09:25:49.115Z,32.5
2017-08-26T09:26:49.358Z,32.6
2017-08-26T09:27:47.698Z,32.6
2017-08-26T09:28:47.391Z,32.6
2017-08-26T09:29:49.575Z,32.6
2017-08-26T09:30:49.655Z,32.7
2017-08-26T09:31:47.759Z,32.7
2017-08-26T09:32:47.659Z,32.7
2017-08-26T09:33:48.189Z,32.7
2017-08-26T09:34:47.991Z,32.8
2017-08-26T09:35:49.963Z,32.8
2017-08-26T09:36:48.087Z,32.8
2017-08-26T09:37:51.548Z,32.8
2017-08-26T09:38:51.332Z,32.8
2017-08-26T09:39:48.247Z,32.8
2017-08-26T09:40:50.793Z,32.9
2017-08-26T09:41:48.175Z,32.9
2017-08-26T09:42:50.304Z,32.9
2017-08-26T09:43:48.267Z,32.9
2017-08-26T09:44:48.496Z,32.9
2017-08-26T09:45:48.545Z,33
2017-08-26T09:46:52.007Z,33
2017-08-26T09:47:48.779Z,33
2017-08-26T09:48:48.596Z,33
2017-08-26T09:49:50.601Z,33
2017-08-26T09:50:48.755Z,33
2017-08-26T09:51:48.925Z,33
2017-08-26T09:52:50.762Z,33
2017-08-26T09:53:48.884Z,33
2017-08-26T09:54:48.932Z,33
2017-08-26T09:55:50.838Z,33
2017-08-26T09:56:52.553Z,33.1
2017-08-26T09:57:51.141Z,33.1
2017-08-26T09:58:50.993Z,33.1
2017-08-26T09:59:49.348Z,33.1
2017-08-26T10:00:49.416Z,33.1
2017-08-26T10:01:49.296Z,33.1
2017-08-26T10:02:49.319Z,33.1
2017-08-26T10:03:49.577Z,33.1
2017-08-26T10:04:49.678Z,33.1
2017-08-26T10:05:53.025Z,33.1
2017-08-26T10:06:52.873Z,33.1
2017-08-26T10:07:53.195Z,33.1
2017-08-26T10:08:49.731Z,33.1
2017-08-26T10:09:50.248Z,33.1
2017-08-26T10:10:52.366Z,33.1
2017-08-26T10:11:51.996Z,33.1
2017-08-26T10:12:53.183Z,33.1
2017-08-26T10:13:49.901Z,33.1
2017-08-26T10:14:53.494Z,33.1
2017-08-26T10:15:50.197Z,33.1
2017-08-26T10:16:50.079Z,33.1
2017-08-26T10:17:53.527Z,33.1
2017-08-26T10:18:50.430Z,33.1
2017-08-26T10:19:52.464Z,33.1
2017-08-26T10:20:50.800Z,33.1
2017-08-26T10:21:54.028Z,33.2
2017-08-26T10:22:50.726Z,33.2
2017-08-26T10:23:52.713Z,33.2
2017-08-26T10:24:50.787Z,33.2
2017-08-26T10:25:52.510Z,33.2
2017-08-26T10:26:52.879Z,33.2
2017-08-26T10:27:54.047Z,33.2
2017-08-26T10:28:54.272Z,33.2
2017-08-26T10:29:50.788Z,33.2
2017-08-26T10:30:52.701Z,33.2
2017-08-26T10:31:50.881Z,33.2
2017-08-26T10:32:53.146Z,33.2
2017-08-26T10:33:52.818Z,33.2
2017-08-26T10:34:50.995Z,33.2
2017-08-26T10:35:54.569Z,33.2
2017-08-26T10:36:54.672Z,33.2
2017-08-26T10:37:51.144Z,33.2
2017-08-26T10:38:51.648Z,33.2
2017-08-26T10:39:53.177Z,33.2
2017-08-26T10:40:53.175Z,33.2
2017-08-26T10:41:52.905Z,33.2
2017-08-26T10:42:54.821Z,33.2
2017-08-26T10:43:51.395Z,33.2
2017-08-26T10:44:55.081Z,33.2
2017-08-26T10:45:51.693Z,33.2
2017-08-26T10:46:51.527Z,33.2
2017-08-26T10:47:51.703Z,33.3
2017-08-26T10:48:53.736Z,33.3
2017-08-26T10:49:54.972Z,33.3
2017-08-26T10:50:51.905Z,33.3
2017-08-26T10:51:51.776Z,33.3
2017-08-26T10:52:52.096Z,33.3
2017-08-26T10:53:52.526Z,33.3
2017-08-26T10:54:54.041Z,33.3
2017-08-26T10:55:52.196Z,33.3
2017-08-26T10:56:52.327Z,33.3
2017-08-26T10:57:52.249Z,33.3
2017-08-26T10:58:55.354Z,33.3
2017-08-26T10:59:52.260Z,33.3
2017-08-26T11:00:55.445Z,33.3
2017-08-26T11:01:55.680Z,33.3
2017-08-26T11:02:55.635Z,33.3
2017-08-26T11:03:55.723Z,33.3
2017-08-26T11:04:54.355Z,33.2
2017-08-26T11:05:52.549Z,33.2
2017-08-26T11:06:52.344Z,33.2
2017-08-26T11:07:55.707Z,33.2
2017-08-26T11:08:54.768Z,33.2
2017-08-26T11:09:52.496Z,33.2
2017-08-26T11:10:55.803Z,33.2
2017-08-26T11:11:55.870Z,33.2
2017-08-26T11:12:56.132Z,33.2
2017-08-26T11:13:54.567Z,33.2
2017-08-26T11:14:54.899Z,33.2
2017-08-26T11:15:55.976Z,33.2
2017-08-26T11:16:56.239Z,33.1
2017-08-26T11:17:54.903Z,33.1
2017-08-26T11:18:52.994Z,33.1
2017-08-26T11:19:54.727Z,33.1
2017-08-26T11:20:54.975Z,33.1
2017-08-26T11:21:56.244Z,33.1
2017-08-26T11:22:53.195Z,33.1
2017-08-26T11:23:52.998Z,33
2017-08-26T11:24:53.300Z,33
2017-08-26T11:25:53.085Z,33
2017-08-26T11:26:53.560Z,32.9
2017-08-26T11:27:55.380Z,32.9
2017-08-26T11:28:53.297Z,32.9
2017-08-26T11:29:55.196Z,32.8
2017-08-26T11:30:55.470Z,32.8
2017-08-26T11:31:55.305Z,32.8
2017-08-26T11:32:55.461Z,32.7
2017-08-26T11:33:55.562Z,32.7
2017-08-26T11:34:56.810Z,32.7
2017-08-26T11:35:53.754Z,32.7
2017-08-26T11:36:56.960Z,32.7
2017-08-26T11:37:57.025Z,32.7
2017-08-26T11:38:56.588Z,32.6
2017-08-26T11:39:55.062Z,32.6
2017-08-26T11:40:54.085Z,32.6
2017-08-26T11:41:56.070Z,32.6
2017-08-26T11:42:54.274Z,32.6
2017-08-26T11:43:58.172Z,32.6
2017-08-26T11:44:54.471Z,32.6
2017-08-26T11:45:57.684Z,32.6
2017-08-26T11:46:56.068Z,32.6
2017-08-26T11:47:57.762Z,32.6
2017-08-26T11:48:57.577Z,32.6
2017-08-26T11:49:54.352Z,32.6
2017-08-26T11:50:54.563Z,32.6
2017-08-26T11:51:54.448Z,32.6
2017-08-26T11:52:58.099Z,32.6
2017-08-26T11:53:57.877Z,32.6
2017-08-26T11:54:54.804Z,32.6
2017-08-26T11:55:58.021Z,32.6
2017-08-26T11:56:55.124Z,32.6
2017-08-26T11:57:56.925Z,32.6
2017-08-26T11:58:55.099Z,32.6
2017-08-26T11:59:54.902Z,32.6
2017-08-26T12:00:58.230Z,32.6
2017-08-26T12:01:55.000Z,32.6
2017-08-26T12:02:55.444Z,32.6
2017-08-26T12:03:55.284Z,32.6
2017-08-26T12:04:55.104Z,32.6
2017-08-26T12:05:58.750Z,32.6
2017-08-26T12:06:58.553Z,32.6
2017-08-26T12:07:58.626Z,32.6
2017-08-26T12:08:55.520Z,32.6
2017-08-26T12:09:58.757Z,32.6
2017-08-26T12:10:57.372Z,32.6
2017-08-26T12:11:57.374Z,32.6
2017-08-26T12:12:55.749Z,32.6
2017-08-26T12:13:57.480Z,32.6
2017-08-26T12:14:55.809Z,32.6
2017-08-26T12:15:55.628Z,32.6
2017-08-26T12:16:57.591Z,32.6
2017-08-26T12:17:59.328Z,32.6
2017-08-26T12:18:55.798Z,32.6
2017-08-26T12:19:57.969Z,32.6
2017-08-26T12:20:57.966Z,32.6
2017-08-26T12:21:59.267Z,32.6
2017-08-26T12:22:56.161Z,32.6
2017-08-26T12:23:56.061Z,32.6
2017-08-26T12:24:56.102Z,32.6
2017-08-26T12:25:56.091Z,32.7
2017-08-26T12:26:56.511Z,32.7
2017-08-26T12:27:58.287Z,32.7
2017-08-26T12:28:59.783Z,32.7
2017-08-26T12:29:58.173Z,32.7
2017-08-26T12:30:58.216Z,32.7
2017-08-26T12:31:59.936Z,32.7
2017-08-26T12:32:56.658Z,32.7
2017-08-26T12:33:56.513Z,32.7
2017-08-26T12:34:56.788Z,32.8
2017-08-26T12:35:58.550Z,32.8
2017-08-26T12:36:56.731Z,32.8
2017-08-26T12:37:58.715Z,32.8
2017-08-26T12:38:58.769Z,32.8
2017-08-26T12:39:56.911Z,32.8
2017-08-26T12:41:00.558Z,32.8
2017-08-26T12:41:59.246Z,32.8
2017-08-26T12:42:59.237Z,32.8
2017-08-26T12:44:00.460Z,32.8
2017-08-26T12:44:59.339Z,32.8
2017-08-26T12:46:00.538Z,32.8
2017-08-26T12:46:57.491Z,32.8
2017-08-26T12:47:57.426Z,32.8
2017-08-26T12:48:57.605Z,32.8
2017-08-26T12:50:00.879Z,32.8
2017-08-26T12:50:57.661Z,32.8
2017-08-26T12:51:57.723Z,32.8
2017-08-26T12:53:00.795Z,32.8
2017-08-26T12:53:57.721Z,32.8
2017-08-26T12:54:59.504Z,32.9
2017-08-26T12:56:00.081Z,32.9
2017-08-26T12:56:57.756Z,32.9
2017-08-26T12:57:58.007Z,32.9
2017-08-26T12:59:01.143Z,32.9
2017-08-26T12:59:58.077Z,32.9
2017-08-26T13:01:01.473Z,32.8
2017-08-26T13:01:58.146Z,32.8
2017-08-26T13:02:58.054Z,32.8
2017-08-26T13:04:01.583Z,32.9
2017-08-26T13:04:58.279Z,32.8
2017-08-26T13:05:59.973Z,32.8
2017-08-26T13:06:58.146Z,32.8
2017-08-26T13:08:01.708Z,32.8
2017-08-26T13:09:00.137Z,32.8
2017-08-26T13:09:58.454Z,32.8
2017-08-26T13:11:00.258Z,32.8
2017-08-26T13:11:58.438Z,32.8
2017-08-26T13:13:00.336Z,32.8
2017-08-26T13:13:58.718Z,32.8
2017-08-26T13:15:00.641Z,32.8
2017-08-26T13:16:02.161Z,32.8
2017-08-26T13:17:00.788Z,32.8
2017-08-26T13:18:02.235Z,32.8
2017-08-26T13:19:02.245Z,32.8
2017-08-26T13:20:00.787Z,32.8
2017-08-26T13:20:58.809Z,32.8
2017-08-26T13:22:00.931Z,32.8
2017-08-26T13:22:59.105Z,32.8